sensor_id;sensor_type;location;lat;lon;timestamp;P1;durP1;ratioP1;P2;durP2;ratioP2
12165;SDS011;6146;48.128;11.476;2022-08-03T00:01:05;2.30;;;2.10;;
12165;SDS011;6146;48.128;11.476;2022-08-03T00:03:31;2.20;;;2.00;;
12165;SDS011;6146;48.128;11.476;2022-08-03T00:05:57;2.50;;;2.00;;
12165;SDS011;6146;48.128;11.476;2022-08-03T00:08:23;4.30;;;2.07;;
12165;SDS011;6146;48.128;11.476;2022-08-03T00:10:48;2.67;;;1.73;;
12165;SDS011;6146;48.128;11.476;2022-08-03T00:13:14;2.27;;;1.80;;
12165;SDS011;6146;48.128;11.476;2022-08-03T00:15:40;2.70;;;1.83;;
12165;SDS011;6146;48.128;11.476;2022-08-03T00:18:07;2.33;;;2.00;;
12165;SDS011;6146;48.128;11.476;2022-08-03T00:20:33;3.20;;;1.63;;
12165;SDS011;6146;48.128;11.476;2022-08-03T00:22:59;2.53;;;1.60;;
12165;SDS011;6146;48.128;11.476;2022-08-03T00:25:24;1.77;;;1.40;;
12165;SDS011;6146;48.128;11.476;2022-08-03T00:27:50;1.90;;;1.70;;
12165;SDS011;6146;48.128;11.476;2022-08-03T00:30:16;2.33;;;1.87;;
12165;SDS011;6146;48.128;11.476;2022-08-03T00:32:42;2.10;;;1.70;;
12165;SDS011;6146;48.128;11.476;2022-08-03T00:35:07;1.70;;;1.60;;
12165;SDS011;6146;48.128;11.476;2022-08-03T00:37:33;2.97;;;1.90;;
12165;SDS011;6146;48.128;11.476;2022-08-03T00:39:59;2.23;;;1.60;;
12165;SDS011;6146;48.128;11.476;2022-08-03T00:42:24;1.50;;;1.40;;
12165;SDS011;6146;48.128;11.476;2022-08-03T00:44:50;2.90;;;1.70;;
12165;SDS011;6146;48.128;11.476;2022-08-03T00:47:15;2.23;;;1.90;;
12165;SDS011;6146;48.128;11.476;2022-08-03T00:49:41;2.10;;;1.80;;
12165;SDS011;6146;48.128;11.476;2022-08-03T00:52:07;2.00;;;1.70;;
12165;SDS011;6146;48.128;11.476;2022-08-03T00:54:35;1.90;;;1.80;;
12165;SDS011;6146;48.128;11.476;2022-08-03T00:57:01;1.67;;;1.50;;
12165;SDS011;6146;48.128;11.476;2022-08-03T00:59:28;2.30;;;1.73;;
12165;SDS011;6146;48.128;11.476;2022-08-03T01:01:54;1.60;;;1.50;;
12165;SDS011;6146;48.128;11.476;2022-08-03T01:04:20;2.10;;;1.90;;
12165;SDS011;6146;48.128;11.476;2022-08-03T01:06:49;2.00;;;1.80;;
12165;SDS011;6146;48.128;11.476;2022-08-03T01:09:45;2.03;;;1.87;;
12165;SDS011;6146;48.128;11.476;2022-08-03T01:12:42;1.70;;;1.60;;
12165;SDS011;6146;48.128;11.476;2022-08-03T01:20:44;1.50;;;1.40;;
12165;SDS011;6146;48.128;11.476;2022-08-03T01:23:21;2.40;;;1.90;;
12165;SDS011;6146;48.128;11.476;2022-08-03T01:31:49;2.70;;;1.70;;
12165;SDS011;6146;48.128;11.476;2022-08-03T01:34:23;2.27;;;1.60;;
12165;SDS011;6146;48.128;11.476;2022-08-03T01:36:55;2.40;;;1.67;;
12165;SDS011;6146;48.128;11.476;2022-08-03T01:39:24;2.70;;;2.10;;
12165;SDS011;6146;48.128;11.476;2022-08-03T01:41:55;4.27;;;1.90;;
12165;SDS011;6146;48.128;11.476;2022-08-03T01:44:29;3.27;;;1.53;;
12165;SDS011;6146;48.128;11.476;2022-08-03T01:47:00;2.43;;;1.60;;
12165;SDS011;6146;48.128;11.476;2022-08-03T01:49:31;1.80;;;1.70;;
12165;SDS011;6146;48.128;11.476;2022-08-03T01:52:01;2.00;;;1.60;;
12165;SDS011;6146;48.128;11.476;2022-08-03T01:54:28;1.67;;;1.57;;
12165;SDS011;6146;48.128;11.476;2022-08-03T01:56:55;1.70;;;1.60;;
12165;SDS011;6146;48.128;11.476;2022-08-03T01:59:22;2.37;;;1.97;;
12165;SDS011;6146;48.128;11.476;2022-08-03T02:01:50;1.87;;;1.70;;
12165;SDS011;6146;48.128;11.476;2022-08-03T02:04:18;2.40;;;1.90;;
12165;SDS011;6146;48.128;11.476;2022-08-03T02:06:45;2.37;;;1.73;;
12165;SDS011;6146;48.128;11.476;2022-08-03T02:09:13;4.30;;;1.97;;
12165;SDS011;6146;48.128;11.476;2022-08-03T02:11:40;2.43;;;1.83;;
12165;SDS011;6146;48.128;11.476;2022-08-03T02:14:07;1.77;;;1.67;;
12165;SDS011;6146;48.128;11.476;2022-08-03T02:16:34;2.10;;;1.90;;
12165;SDS011;6146;48.128;11.476;2022-08-03T02:19:01;2.87;;;2.13;;
12165;SDS011;6146;48.128;11.476;2022-08-03T02:21:29;1.70;;;1.60;;
12165;SDS011;6146;48.128;11.476;2022-08-03T02:23:57;2.13;;;1.60;;
12165;SDS011;6146;48.128;11.476;2022-08-03T02:26:23;2.07;;;1.70;;
12165;SDS011;6146;48.128;11.476;2022-08-03T02:28:52;2.90;;;1.80;;
12165;SDS011;6146;48.128;11.476;2022-08-03T02:31:24;1.90;;;1.80;;
12165;SDS011;6146;48.128;11.476;2022-08-03T02:33:55;2.60;;;1.70;;
12165;SDS011;6146;48.128;11.476;2022-08-03T02:36:29;1.90;;;1.80;;
12165;SDS011;6146;48.128;11.476;2022-08-03T02:38:59;2.93;;;1.70;;
12165;SDS011;6146;48.128;11.476;2022-08-03T02:41:28;3.10;;;2.10;;
12165;SDS011;6146;48.128;11.476;2022-08-03T02:43:56;1.60;;;1.50;;
12165;SDS011;6146;48.128;11.476;2022-08-03T02:46:27;2.00;;;1.60;;
12165;SDS011;6146;48.128;11.476;2022-08-03T02:48:56;1.90;;;1.80;;
12165;SDS011;6146;48.128;11.476;2022-08-03T02:51:25;2.27;;;1.90;;
12165;SDS011;6146;48.128;11.476;2022-08-03T02:53:53;4.27;;;1.97;;
12165;SDS011;6146;48.128;11.476;2022-08-03T02:56:20;1.90;;;1.70;;
12165;SDS011;6146;48.128;11.476;2022-08-03T02:58:47;2.20;;;1.90;;
12165;SDS011;6146;48.128;11.476;2022-08-03T03:01:14;2.07;;;1.87;;
12165;SDS011;6146;48.128;11.476;2022-08-03T03:03:40;2.23;;;2.03;;
12165;SDS011;6146;48.128;11.476;2022-08-03T03:06:06;2.30;;;2.10;;
12165;SDS011;6146;48.128;11.476;2022-08-03T03:08:35;2.23;;;2.03;;
12165;SDS011;6146;48.128;11.476;2022-08-03T03:11:01;2.90;;;1.93;;
12165;SDS011;6146;48.128;11.476;2022-08-03T03:13:27;2.00;;;1.80;;
12165;SDS011;6146;48.128;11.476;2022-08-03T03:15:54;1.97;;;1.87;;
12165;SDS011;6146;48.128;11.476;2022-08-03T03:18:23;2.43;;;1.70;;
12165;SDS011;6146;48.128;11.476;2022-08-03T03:20:51;1.73;;;1.63;;
12165;SDS011;6146;48.128;11.476;2022-08-03T03:23:18;2.57;;;1.80;;
12165;SDS011;6146;48.128;11.476;2022-08-03T03:25:45;2.50;;;2.00;;
12165;SDS011;6146;48.128;11.476;2022-08-03T03:28:12;2.10;;;1.90;;
12165;SDS011;6146;48.128;11.476;2022-08-03T03:30:38;2.30;;;1.67;;
12165;SDS011;6146;48.128;11.476;2022-08-03T03:33:04;1.97;;;1.80;;
12165;SDS011;6146;48.128;11.476;2022-08-03T03:35:30;3.23;;;1.77;;
12165;SDS011;6146;48.128;11.476;2022-08-03T03:37:56;1.80;;;1.70;;
12165;SDS011;6146;48.128;11.476;2022-08-03T03:40:21;2.80;;;2.03;;
12165;SDS011;6146;48.128;11.476;2022-08-03T03:42:48;2.00;;;1.80;;
12165;SDS011;6146;48.128;11.476;2022-08-03T03:45:14;2.00;;;1.80;;
12165;SDS011;6146;48.128;11.476;2022-08-03T03:47:40;3.70;;;2.07;;
12165;SDS011;6146;48.128;11.476;2022-08-03T03:50:06;2.40;;;2.03;;
12165;SDS011;6146;48.128;11.476;2022-08-03T03:52:32;1.77;;;1.67;;
12165;SDS011;6146;48.128;11.476;2022-08-03T03:54:58;3.67;;;2.20;;
12165;SDS011;6146;48.128;11.476;2022-08-03T03:57:24;1.83;;;1.73;;
12165;SDS011;6146;48.128;11.476;2022-08-03T03:59:50;2.10;;;1.90;;
12165;SDS011;6146;48.128;11.476;2022-08-03T04:02:15;2.33;;;2.10;;
12165;SDS011;6146;48.128;11.476;2022-08-03T04:04:41;2.03;;;1.87;;
12165;SDS011;6146;48.128;11.476;2022-08-03T04:07:25;2.47;;;1.97;;
12165;SDS011;6146;48.128;11.476;2022-08-03T04:10:17;2.20;;;2.00;;
12165;SDS011;6146;48.128;11.476;2022-08-03T04:13:08;2.30;;;2.10;;
12165;SDS011;6146;48.128;11.476;2022-08-03T04:15:36;3.63;;;2.13;;
12165;SDS011;6146;48.128;11.476;2022-08-03T04:18:03;2.87;;;2.20;;
12165;SDS011;6146;48.128;11.476;2022-08-03T04:20:34;2.73;;;1.80;;
12165;SDS011;6146;48.128;11.476;2022-08-03T04:23:02;2.53;;;2.10;;
12165;SDS011;6146;48.128;11.476;2022-08-03T04:25:31;2.60;;;2.03;;
12165;SDS011;6146;48.128;11.476;2022-08-03T04:28:00;2.97;;;2.20;;
12165;SDS011;6146;48.128;11.476;2022-08-03T04:30:26;5.03;;;1.90;;
12165;SDS011;6146;48.128;11.476;2022-08-03T04:32:53;2.07;;;1.87;;
12165;SDS011;6146;48.128;11.476;2022-08-03T04:35:21;2.90;;;2.20;;
12165;SDS011;6146;48.128;11.476;2022-08-03T04:37:53;4.00;;;2.27;;
12165;SDS011;6146;48.128;11.476;2022-08-03T04:40:24;2.67;;;1.87;;
12165;SDS011;6146;48.128;11.476;2022-08-03T04:42:58;4.20;;;2.60;;
12165;SDS011;6146;48.128;11.476;2022-08-03T04:45:28;2.60;;;2.10;;
12165;SDS011;6146;48.128;11.476;2022-08-03T04:47:55;2.17;;;1.97;;
12165;SDS011;6146;48.128;11.476;2022-08-03T04:50:22;3.07;;;2.10;;
12165;SDS011;6146;48.128;11.476;2022-08-03T04:52:48;2.13;;;1.80;;
12165;SDS011;6146;48.128;11.476;2022-08-03T04:55:26;2.30;;;2.10;;
12165;SDS011;6146;48.128;11.476;2022-08-03T04:57:53;1.90;;;1.80;;
12165;SDS011;6146;48.128;11.476;2022-08-03T05:00:19;2.13;;;1.93;;
12165;SDS011;6146;48.128;11.476;2022-08-03T05:02:44;1.90;;;1.80;;
12165;SDS011;6146;48.128;11.476;2022-08-03T05:05:10;3.03;;;2.00;;
12165;SDS011;6146;48.128;11.476;2022-08-03T05:07:36;1.97;;;1.77;;
12165;SDS011;6146;48.128;11.476;2022-08-03T05:10:05;1.83;;;1.73;;
12165;SDS011;6146;48.128;11.476;2022-08-03T05:12:32;2.53;;;1.70;;
12165;SDS011;6146;48.128;11.476;2022-08-03T05:14:57;1.57;;;1.47;;
12165;SDS011;6146;48.128;11.476;2022-08-03T05:17:23;1.90;;;1.63;;
12165;SDS011;6146;48.128;11.476;2022-08-03T05:19:49;3.47;;;1.97;;
12165;SDS011;6146;48.128;11.476;2022-08-03T05:22:14;2.57;;;1.70;;
12165;SDS011;6146;48.128;11.476;2022-08-03T05:24:40;2.10;;;1.90;;
12165;SDS011;6146;48.128;11.476;2022-08-03T05:27:05;2.67;;;1.70;;
12165;SDS011;6146;48.128;11.476;2022-08-03T05:29:31;1.60;;;1.50;;
12165;SDS011;6146;48.128;11.476;2022-08-03T05:31:56;2.50;;;1.57;;
12165;SDS011;6146;48.128;11.476;2022-08-03T05:34:22;1.60;;;1.50;;
12165;SDS011;6146;48.128;11.476;2022-08-03T05:36:48;2.67;;;1.67;;
12165;SDS011;6146;48.128;11.476;2022-08-03T05:39:13;2.28;;;1.77;;
12165;SDS011;6146;48.128;11.476;2022-08-03T05:41:39;2.42;;;1.50;;
12165;SDS011;6146;48.128;11.476;2022-08-03T05:44:04;1.75;;;1.60;;
12165;SDS011;6146;48.128;11.476;2022-08-03T05:46:30;1.73;;;1.58;;
12165;SDS011;6146;48.128;11.476;2022-08-03T05:48:56;1.70;;;1.35;;
12165;SDS011;6146;48.128;11.476;2022-08-03T05:51:21;3.88;;;1.58;;
12165;SDS011;6146;48.128;11.476;2022-08-03T05:53:47;1.50;;;1.40;;
12165;SDS011;6146;48.128;11.476;2022-08-03T05:56:12;1.58;;;1.48;;
12165;SDS011;6146;48.128;11.476;2022-08-03T05:58:38;1.30;;;1.20;;
12165;SDS011;6146;48.128;11.476;2022-08-03T06:01:03;1.60;;;1.35;;
12165;SDS011;6146;48.128;11.476;2022-08-03T06:03:29;1.70;;;1.42;;
12165;SDS011;6146;48.128;11.476;2022-08-03T06:05:54;1.40;;;1.30;;
12165;SDS011;6146;48.128;11.476;2022-08-03T06:08:20;1.40;;;1.30;;
12165;SDS011;6146;48.128;11.476;2022-08-03T06:10:47;2.00;;;1.60;;
12165;SDS011;6146;48.128;11.476;2022-08-03T06:13:13;2.03;;;1.70;;
12165;SDS011;6146;48.128;11.476;2022-08-03T06:15:38;2.58;;;1.45;;
12165;SDS011;6146;48.128;11.476;2022-08-03T06:18:04;1.73;;;1.45;;
12165;SDS011;6146;48.128;11.476;2022-08-03T06:20:30;1.33;;;1.17;;
12165;SDS011;6146;48.128;11.476;2022-08-03T06:22:55;1.48;;;1.38;;
12165;SDS011;6146;48.128;11.476;2022-08-03T06:25:21;2.28;;;1.50;;
12165;SDS011;6146;48.128;11.476;2022-08-03T06:27:46;2.15;;;1.55;;
12165;SDS011;6146;48.128;11.476;2022-08-03T06:30:12;2.00;;;1.50;;
12165;SDS011;6146;48.128;11.476;2022-08-03T06:32:38;1.63;;;1.27;;
12165;SDS011;6146;48.128;11.476;2022-08-03T06:35:05;2.00;;;1.40;;
12165;SDS011;6146;48.128;11.476;2022-08-03T06:37:40;1.48;;;1.35;;
12165;SDS011;6146;48.128;11.476;2022-08-03T06:40:13;1.40;;;1.30;;
12165;SDS011;6146;48.128;11.476;2022-08-03T06:42:41;1.42;;;1.30;;
12165;SDS011;6146;48.128;11.476;2022-08-03T06:45:06;1.70;;;1.40;;
12165;SDS011;6146;48.128;11.476;2022-08-03T06:47:34;2.05;;;1.20;;
12165;SDS011;6146;48.128;11.476;2022-08-03T06:50:03;1.35;;;1.20;;
12165;SDS011;6146;48.128;11.476;2022-08-03T06:52:30;1.30;;;1.20;;
12165;SDS011;6146;48.128;11.476;2022-08-03T06:54:56;1.10;;;1.10;;
12165;SDS011;6146;48.128;11.476;2022-08-03T06:57:22;1.95;;;1.23;;
12165;SDS011;6146;48.128;11.476;2022-08-03T06:59:48;1.40;;;1.30;;
12165;SDS011;6146;48.128;11.476;2022-08-03T07:02:14;1.85;;;1.25;;
12165;SDS011;6146;48.128;11.476;2022-08-03T07:04:39;1.42;;;1.30;;
12165;SDS011;6146;48.128;11.476;2022-08-03T07:07:05;1.30;;;1.20;;
12165;SDS011;6146;48.128;11.476;2022-08-03T07:09:30;1.48;;;1.20;;
12165;SDS011;6146;48.128;11.476;2022-08-03T07:11:56;1.52;;;1.20;;
12165;SDS011;6146;48.128;11.476;2022-08-03T07:14:22;1.60;;;1.45;;
12165;SDS011;6146;48.128;11.476;2022-08-03T07:16:48;1.30;;;1.20;;
12165;SDS011;6146;48.128;11.476;2022-08-03T07:19:13;1.48;;;1.38;;
12165;SDS011;6146;48.128;11.476;2022-08-03T07:21:39;2.30;;;1.60;;
12165;SDS011;6146;48.128;11.476;2022-08-03T07:24:05;3.15;;;1.40;;
12165;SDS011;6146;48.128;11.476;2022-08-03T07:26:31;2.13;;;1.80;;
12165;SDS011;6146;48.128;11.476;2022-08-03T07:28:56;3.55;;;1.75;;
12165;SDS011;6146;48.128;11.476;2022-08-03T07:31:22;3.28;;;1.50;;
12165;SDS011;6146;48.128;11.476;2022-08-03T07:33:48;2.10;;;1.40;;
12165;SDS011;6146;48.128;11.476;2022-08-03T07:36:13;1.98;;;1.55;;
12165;SDS011;6146;48.128;11.476;2022-08-03T07:38:39;1.75;;;1.50;;
12165;SDS011;6146;48.128;11.476;2022-08-03T07:41:04;2.30;;;1.55;;
12165;SDS011;6146;48.128;11.476;2022-08-03T07:43:30;1.85;;;1.50;;
12165;SDS011;6146;48.128;11.476;2022-08-03T07:45:55;1.92;;;1.50;;
12165;SDS011;6146;48.128;11.476;2022-08-03T07:48:21;1.67;;;1.48;;
12165;SDS011;6146;48.128;11.476;2022-08-03T07:50:46;1.80;;;1.50;;
12165;SDS011;6146;48.128;11.476;2022-08-03T07:53:12;1.80;;;1.23;;
12165;SDS011;6146;48.128;11.476;2022-08-03T07:55:38;1.58;;;1.40;;
12165;SDS011;6146;48.128;11.476;2022-08-03T07:58:05;1.95;;;1.30;;
12165;SDS011;6146;48.128;11.476;2022-08-03T08:00:33;2.08;;;1.33;;
12165;SDS011;6146;48.128;11.476;2022-08-03T08:02:59;2.00;;;1.42;;
12165;SDS011;6146;48.128;11.476;2022-08-03T08:05:25;1.67;;;1.50;;
12165;SDS011;6146;48.128;11.476;2022-08-03T08:07:52;2.97;;;1.50;;
12165;SDS011;6146;48.128;11.476;2022-08-03T08:10:18;3.30;;;1.50;;
12165;SDS011;6146;48.128;11.476;2022-08-03T08:12:44;2.58;;;1.23;;
12165;SDS011;6146;48.128;11.476;2022-08-03T08:15:10;2.70;;;1.48;;
12165;SDS011;6146;48.128;11.476;2022-08-03T08:17:49;1.73;;;1.35;;
12165;SDS011;6146;48.128;11.476;2022-08-03T08:20:17;2.00;;;1.10;;
12165;SDS011;6146;48.128;11.476;2022-08-03T08:22:47;2.30;;;1.10;;
12165;SDS011;6146;48.128;11.476;2022-08-03T08:25:13;1.73;;;1.15;;
12165;SDS011;6146;48.128;11.476;2022-08-03T08:27:46;1.58;;;1.40;;
12165;SDS011;6146;48.128;11.476;2022-08-03T08:30:13;1.52;;;1.10;;
12165;SDS011;6146;48.128;11.476;2022-08-03T08:32:41;1.42;;;1.20;;
12165;SDS011;6146;48.128;11.476;2022-08-03T08:35:07;1.88;;;1.23;;
12165;SDS011;6146;48.128;11.476;2022-08-03T08:37:34;1.23;;;1.10;;
12165;SDS011;6146;48.128;11.476;2022-08-03T08:40:00;1.50;;;1.30;;
12165;SDS011;6146;48.128;11.476;2022-08-03T08:42:26;1.27;;;1.15;;
12165;SDS011;6146;48.128;11.476;2022-08-03T08:44:51;3.13;;;1.20;;
12165;SDS011;6146;48.128;11.476;2022-08-03T08:47:24;1.23;;;1.17;;
12165;SDS011;6146;48.128;11.476;2022-08-03T08:49:53;1.40;;;1.13;;
12165;SDS011;6146;48.128;11.476;2022-08-03T08:52:23;2.85;;;1.77;;
12165;SDS011;6146;48.128;11.476;2022-08-03T08:54:55;1.88;;;1.10;;
12165;SDS011;6146;48.128;11.476;2022-08-03T08:57:29;2.30;;;1.20;;
12165;SDS011;6146;48.128;11.476;2022-08-03T08:59:58;1.67;;;1.20;;
12165;SDS011;6146;48.128;11.476;2022-08-03T09:02:26;1.85;;;1.40;;
12165;SDS011;6146;48.128;11.476;2022-08-03T09:04:54;1.42;;;1.30;;
12165;SDS011;6146;48.128;11.476;2022-08-03T09:07:21;1.30;;;1.20;;
12165;SDS011;6146;48.128;11.476;2022-08-03T09:09:47;1.92;;;1.33;;
12165;SDS011;6146;48.128;11.476;2022-08-03T09:12:13;1.65;;;1.27;;
12165;SDS011;6146;48.128;11.476;2022-08-03T09:14:39;1.20;;;1.10;;
12165;SDS011;6146;48.128;11.476;2022-08-03T09:17:05;1.10;;;1.10;;
12165;SDS011;6146;48.128;11.476;2022-08-03T09:19:32;1.33;;;1.20;;
12165;SDS011;6146;48.128;11.476;2022-08-03T09:22:11;1.20;;;1.10;;
12165;SDS011;6146;48.128;11.476;2022-08-03T09:24:55;2.58;;;0.95;;
12165;SDS011;6146;48.128;11.476;2022-08-03T09:27:22;1.35;;;1.13;;
12165;SDS011;6146;48.128;11.476;2022-08-03T09:29:48;1.30;;;1.00;;
12165;SDS011;6146;48.128;11.476;2022-08-03T09:32:18;1.38;;;1.13;;
12165;SDS011;6146;48.128;11.476;2022-08-03T09:34:46;1.30;;;1.08;;
12165;SDS011;6146;48.128;11.476;2022-08-03T09:37:13;1.50;;;1.00;;
12165;SDS011;6146;48.128;11.476;2022-08-03T09:39:40;3.38;;;1.25;;
12165;SDS011;6146;48.128;11.476;2022-08-03T09:42:07;1.20;;;1.10;;
12165;SDS011;6146;48.128;11.476;2022-08-03T09:44:38;1.30;;;1.20;;
12165;SDS011;6146;48.128;11.476;2022-08-03T09:47:06;2.08;;;1.10;;
12165;SDS011;6146;48.128;11.476;2022-08-03T09:49:34;1.08;;;0.98;;
12165;SDS011;6146;48.128;11.476;2022-08-03T09:52:00;2.30;;;1.00;;
12165;SDS011;6146;48.128;11.476;2022-08-03T09:54:36;1.38;;;1.13;;
12165;SDS011;6146;48.128;11.476;2022-08-03T09:57:02;0.93;;;0.90;;
12165;SDS011;6146;48.128;11.476;2022-08-03T09:59:28;3.17;;;1.00;;
12165;SDS011;6146;48.128;11.476;2022-08-03T10:01:56;0.80;;;0.80;;
12165;SDS011;6146;48.128;11.476;2022-08-03T10:04:23;2.13;;;1.10;;
12165;SDS011;6146;48.128;11.476;2022-08-03T10:07:09;1.00;;;1.00;;
12165;SDS011;6146;48.128;11.476;2022-08-03T10:09:35;1.63;;;1.05;;
12165;SDS011;6146;48.128;11.476;2022-08-03T10:12:08;1.10;;;1.00;;
12165;SDS011;6146;48.128;11.476;2022-08-03T10:14:39;1.23;;;1.08;;
12165;SDS011;6146;48.128;11.476;2022-08-03T10:17:06;1.20;;;1.00;;
12165;SDS011;6146;48.128;11.476;2022-08-03T10:19:33;1.50;;;0.98;;
12165;SDS011;6146;48.128;11.476;2022-08-03T10:24:51;1.10;;;1.00;;
12165;SDS011;6146;48.128;11.476;2022-08-03T10:27:23;1.58;;;1.20;;
12165;SDS011;6146;48.128;11.476;2022-08-03T10:29:51;1.75;;;1.00;;
12165;SDS011;6146;48.128;11.476;2022-08-03T10:32:20;1.20;;;1.10;;
12165;SDS011;6146;48.128;11.476;2022-08-03T10:35:01;1.42;;;1.17;;
12165;SDS011;6146;48.128;11.476;2022-08-03T10:37:31;1.08;;;1.08;;
12165;SDS011;6146;48.128;11.476;2022-08-03T10:40:01;1.50;;;1.00;;
12165;SDS011;6146;48.128;11.476;2022-08-03T10:42:27;0.85;;;0.85;;
12165;SDS011;6146;48.128;11.476;2022-08-03T10:44:59;1.23;;;1.13;;
12165;SDS011;6146;48.128;11.476;2022-08-03T10:47:30;1.48;;;0.93;;
12165;SDS011;6146;48.128;11.476;2022-08-03T10:49:58;2.05;;;1.30;;
12165;SDS011;6146;48.128;11.476;2022-08-03T10:52:24;1.23;;;0.90;;
12165;SDS011;6146;48.128;11.476;2022-08-03T10:54:50;1.08;;;1.00;;
12165;SDS011;6146;48.128;11.476;2022-08-03T11:00:10;0.88;;;0.88;;
12165;SDS011;6146;48.128;11.476;2022-08-03T11:05:29;1.20;;;1.10;;
12165;SDS011;6146;48.128;11.476;2022-08-03T11:10:46;0.98;;;0.98;;
12165;SDS011;6146;48.128;11.476;2022-08-03T11:13:14;0.75;;;0.75;;
12165;SDS011;6146;48.128;11.476;2022-08-03T11:15:42;1.05;;;1.00;;
12165;SDS011;6146;48.128;11.476;2022-08-03T11:18:10;0.80;;;0.80;;
12165;SDS011;6146;48.128;11.476;2022-08-03T11:26:12;0.98;;;0.98;;
12165;SDS011;6146;48.128;11.476;2022-08-03T11:28:39;0.90;;;0.90;;
12165;SDS011;6146;48.128;11.476;2022-08-03T11:31:48;1.30;;;1.20;;
12165;SDS011;6146;48.128;11.476;2022-08-03T11:34:07;1.50;;;1.23;;
12165;SDS011;6146;48.128;11.476;2022-08-03T11:39:38;1.08;;;0.98;;
12165;SDS011;6146;48.128;11.476;2022-08-03T11:44:49;0.98;;;0.98;;
12165;SDS011;6146;48.128;11.476;2022-08-03T11:47:22;1.17;;;1.08;;
12165;SDS011;6146;48.128;11.476;2022-08-03T11:49:51;2.28;;;1.50;;
12165;SDS011;6146;48.128;11.476;2022-08-03T11:52:19;1.33;;;1.23;;
12165;SDS011;6146;48.128;11.476;2022-08-03T11:54:44;1.35;;;1.20;;
12165;SDS011;6146;48.128;11.476;2022-08-03T11:57:25;1.20;;;1.10;;
12165;SDS011;6146;48.128;11.476;2022-08-03T11:59:56;1.00;;;1.00;;
12165;SDS011;6146;48.128;11.476;2022-08-03T12:02:22;2.13;;;1.35;;
12165;SDS011;6146;48.128;11.476;2022-08-03T12:04:51;1.27;;;1.15;;
12165;SDS011;6146;48.128;11.476;2022-08-03T12:07:22;1.15;;;1.10;;
12165;SDS011;6146;48.128;11.476;2022-08-03T12:10:07;2.30;;;1.20;;
12165;SDS011;6146;48.128;11.476;2022-08-03T12:12:35;1.10;;;1.10;;
12165;SDS011;6146;48.128;11.476;2022-08-03T12:15:01;2.45;;;1.38;;
12165;SDS011;6146;48.128;11.476;2022-08-03T12:17:38;1.23;;;1.15;;
12165;SDS011;6146;48.128;11.476;2022-08-03T12:20:06;1.08;;;1.05;;
12165;SDS011;6146;48.128;11.476;2022-08-03T12:22:44;1.65;;;1.20;;
12165;SDS011;6146;48.128;11.476;2022-08-03T12:25:17;1.42;;;1.10;;
12165;SDS011;6146;48.128;11.476;2022-08-03T12:27:46;1.85;;;1.08;;
12165;SDS011;6146;48.128;11.476;2022-08-03T12:30:11;1.20;;;1.10;;
12165;SDS011;6146;48.128;11.476;2022-08-03T12:32:37;1.48;;;1.20;;
12165;SDS011;6146;48.128;11.476;2022-08-03T12:35:03;1.25;;;1.05;;
12165;SDS011;6146;48.128;11.476;2022-08-03T12:37:29;1.13;;;1.10;;
12165;SDS011;6146;48.128;11.476;2022-08-03T12:39:56;1.20;;;1.10;;
12165;SDS011;6146;48.128;11.476;2022-08-03T12:42:35;3.15;;;1.40;;
12165;SDS011;6146;48.128;11.476;2022-08-03T12:45:17;2.30;;;1.20;;
12165;SDS011;6146;48.128;11.476;2022-08-03T12:47:51;1.25;;;1.15;;
12165;SDS011;6146;48.128;11.476;2022-08-03T12:52:51;1.90;;;1.20;;
12165;SDS011;6146;48.128;11.476;2022-08-03T12:55:20;1.30;;;1.20;;
12165;SDS011;6146;48.128;11.476;2022-08-03T12:57:47;1.80;;;1.20;;
12165;SDS011;6146;48.128;11.476;2022-08-03T13:00:13;1.30;;;1.20;;
12165;SDS011;6146;48.128;11.476;2022-08-03T13:02:41;1.30;;;1.20;;
12165;SDS011;6146;48.128;11.476;2022-08-03T13:05:10;2.08;;;1.20;;
12165;SDS011;6146;48.128;11.476;2022-08-03T13:07:43;2.15;;;1.20;;
12165;SDS011;6146;48.128;11.476;2022-08-03T13:10:11;1.65;;;1.20;;
12165;SDS011;6146;48.128;11.476;2022-08-03T13:12:50;1.40;;;1.30;;
12165;SDS011;6146;48.128;11.476;2022-08-03T13:15:17;1.20;;;1.10;;
12165;SDS011;6146;48.128;11.476;2022-08-03T13:17:42;2.03;;;1.15;;
12165;SDS011;6146;48.128;11.476;2022-08-03T13:20:08;1.30;;;1.20;;
12165;SDS011;6146;48.128;11.476;2022-08-03T13:22:34;1.85;;;1.33;;
12165;SDS011;6146;48.128;11.476;2022-08-03T13:25:00;1.50;;;1.40;;
12165;SDS011;6146;48.128;11.476;2022-08-03T13:27:27;1.50;;;1.40;;
12165;SDS011;6146;48.128;11.476;2022-08-03T13:29:53;1.48;;;1.23;;
12165;SDS011;6146;48.128;11.476;2022-08-03T13:32:20;1.63;;;1.02;;
12165;SDS011;6146;48.128;11.476;2022-08-03T13:34:46;1.67;;;1.02;;
12165;SDS011;6146;48.128;11.476;2022-08-03T13:37:12;1.40;;;1.30;;
12165;SDS011;6146;48.128;11.476;2022-08-03T13:39:38;1.27;;;1.17;;
12165;SDS011;6146;48.128;11.476;2022-08-03T13:42:05;1.50;;;1.40;;
12165;SDS011;6146;48.128;11.476;2022-08-03T13:44:31;1.25;;;1.15;;
12165;SDS011;6146;48.128;11.476;2022-08-03T13:46:57;1.90;;;1.10;;
12165;SDS011;6146;48.128;11.476;2022-08-03T13:49:24;1.50;;;1.13;;
12165;SDS011;6146;48.128;11.476;2022-08-03T13:51:50;1.10;;;1.00;;
12165;SDS011;6146;48.128;11.476;2022-08-03T13:54:16;1.77;;;1.15;;
12165;SDS011;6146;48.128;11.476;2022-08-03T13:56:43;1.45;;;1.10;;
12165;SDS011;6146;48.128;11.476;2022-08-03T13:59:14;2.42;;;1.27;;
12165;SDS011;6146;48.128;11.476;2022-08-03T14:01:39;1.48;;;1.30;;
12165;SDS011;6146;48.128;11.476;2022-08-03T14:04:05;1.23;;;1.05;;
12165;SDS011;6146;48.128;11.476;2022-08-03T14:06:30;1.65;;;1.45;;
12165;SDS011;6146;48.128;11.476;2022-08-03T14:08:56;1.50;;;1.20;;
12165;SDS011;6146;48.128;11.476;2022-08-03T14:11:22;1.52;;;1.00;;
12165;SDS011;6146;48.128;11.476;2022-08-03T14:13:47;1.30;;;1.17;;
12165;SDS011;6146;48.128;11.476;2022-08-03T14:16:13;4.10;;;1.35;;
12165;SDS011;6146;48.128;11.476;2022-08-03T14:18:38;1.27;;;1.17;;
12165;SDS011;6146;48.128;11.476;2022-08-03T14:21:06;1.48;;;1.20;;
12165;SDS011;6146;48.128;11.476;2022-08-03T14:23:31;1.45;;;1.15;;
12165;SDS011;6146;48.128;11.476;2022-08-03T14:25:58;2.35;;;1.30;;
12165;SDS011;6146;48.128;11.476;2022-08-03T14:28:24;1.45;;;1.00;;
12165;SDS011;6146;48.128;11.476;2022-08-03T14:30:50;1.52;;;1.10;;
12165;SDS011;6146;48.128;11.476;2022-08-03T14:33:17;2.15;;;1.30;;
12165;SDS011;6146;48.128;11.476;2022-08-03T14:35:42;1.20;;;1.10;;
12165;SDS011;6146;48.128;11.476;2022-08-03T14:38:08;2.03;;;1.20;;
12165;SDS011;6146;48.128;11.476;2022-08-03T14:40:34;1.52;;;1.20;;
12165;SDS011;6146;48.128;11.476;2022-08-03T14:42:59;1.35;;;1.25;;
12165;SDS011;6146;48.128;11.476;2022-08-03T14:45:26;1.48;;;1.38;;
12165;SDS011;6146;48.128;11.476;2022-08-03T14:47:51;1.30;;;1.20;;
12165;SDS011;6146;48.128;11.476;2022-08-03T14:50:17;1.05;;;1.05;;
12165;SDS011;6146;48.128;11.476;2022-08-03T14:52:42;2.00;;;1.40;;
12165;SDS011;6146;48.128;11.476;2022-08-03T14:55:08;1.30;;;1.20;;
12165;SDS011;6146;48.128;11.476;2022-08-03T14:57:34;2.75;;;1.10;;
12165;SDS011;6146;48.128;11.476;2022-08-03T14:59:59;1.60;;;1.20;;
12165;SDS011;6146;48.128;11.476;2022-08-03T15:02:25;3.42;;;1.40;;
12165;SDS011;6146;48.128;11.476;2022-08-03T15:04:52;1.67;;;1.20;;
12165;SDS011;6146;48.128;11.476;2022-08-03T15:07:18;1.83;;;1.05;;
12165;SDS011;6146;48.128;11.476;2022-08-03T15:09:44;2.28;;;1.30;;
12165;SDS011;6146;48.128;11.476;2022-08-03T15:12:09;1.45;;;1.20;;
12165;SDS011;6146;48.128;11.476;2022-08-03T15:14:35;1.40;;;1.30;;
12165;SDS011;6146;48.128;11.476;2022-08-03T15:17:01;2.35;;;1.30;;
12165;SDS011;6146;48.128;11.476;2022-08-03T15:19:26;1.20;;;1.10;;
12165;SDS011;6146;48.128;11.476;2022-08-03T15:21:52;1.60;;;1.30;;
12165;SDS011;6146;48.128;11.476;2022-08-03T15:24:17;2.30;;;1.20;;
12165;SDS011;6146;48.128;11.476;2022-08-03T15:26:43;2.25;;;1.30;;
12165;SDS011;6146;48.128;11.476;2022-08-03T15:29:09;1.75;;;1.42;;